sensor_id;sensor_type;location;lat;lon;timestamp;P1;durP1;ratioP1;P2;durP2;ratioP2
64641;SDS011;59936;51.490;5.436;2022-12-07T00:02:06;11.93;;;8.48;;
64641;SDS011;59936;51.490;5.436;2022-12-07T00:07:08;16.30;;;8.38;;
64641;SDS011;59936;51.490;5.436;2022-12-07T00:12:11;11.05;;;7.28;;
64641;SDS011;59936;51.490;5.436;2022-12-07T00:17:13;10.75;;;7.53;;
64641;SDS011;59936;51.490;5.436;2022-12-07T00:22:14;10.50;;;7.70;;
64641;SDS011;59936;51.490;5.436;2022-12-07T00:27:17;13.63;;;8.23;;
64641;SDS011;59936;51.490;5.436;2022-12-07T00:32:19;15.55;;;7.80;;
64641;SDS011;59936;51.490;5.436;2022-12-07T00:37:21;10.97;;;7.53;;
64641;SDS011;59936;51.490;5.436;2022-12-07T00:42:24;11.37;;;7.60;;
64641;SDS011;59936;51.490;5.436;2022-12-07T00:47:25;9.10;;;7.28;;
64641;SDS011;59936;51.490;5.436;2022-12-07T00:52:27;11.90;;;7.70;;
64641;SDS011;59936;51.490;5.436;2022-12-07T00:57:31;11.63;;;7.70;;
64641;SDS011;59936;51.490;5.436;2022-12-07T01:02:33;35.10;;;9.13;;
64641;SDS011;59936;51.490;5.436;2022-12-07T01:07:34;16.45;;;9.75;;
64641;SDS011;59936;51.490;5.436;2022-12-07T01:12:38;14.10;;;7.35;;
64641;SDS011;59936;51.490;5.436;2022-12-07T01:17:40;12.77;;;7.55;;
64641;SDS011;59936;51.490;5.436;2022-12-07T01:22:42;9.30;;;7.83;;
64641;SDS011;59936;51.490;5.436;2022-12-07T01:27:46;12.10;;;6.35;;
64641;SDS011;59936;51.490;5.436;2022-12-07T01:32:48;11.30;;;7.05;;
64641;SDS011;59936;51.490;5.436;2022-12-07T01:37:49;8.05;;;6.60;;
64641;SDS011;59936;51.490;5.436;2022-12-07T01:42:52;19.77;;;8.60;;
64641;SDS011;59936;51.490;5.436;2022-12-07T01:47:55;15.25;;;8.52;;
64641;SDS011;59936;51.490;5.436;2022-12-07T01:52:59;13.45;;;9.18;;
64641;SDS011;59936;51.490;5.436;2022-12-07T01:58:06;13.82;;;8.48;;
64641;SDS011;59936;51.490;5.436;2022-12-07T02:03:09;22.75;;;8.05;;
64641;SDS011;59936;51.490;5.436;2022-12-07T02:08:18;17.95;;;8.18;;
64641;SDS011;59936;51.490;5.436;2022-12-07T02:13:23;15.63;;;9.07;;
64641;SDS011;59936;51.490;5.436;2022-12-07T02:18:31;9.13;;;7.32;;
64641;SDS011;59936;51.490;5.436;2022-12-07T02:23:59;11.45;;;8.18;;
64641;SDS011;59936;51.490;5.436;2022-12-07T02:29:40;9.05;;;7.30;;
64641;SDS011;59936;51.490;5.436;2022-12-07T02:34:51;9.07;;;6.78;;
64641;SDS011;59936;51.490;5.436;2022-12-07T02:40:07;10.82;;;6.25;;
64641;SDS011;59936;51.490;5.436;2022-12-07T02:45:20;9.70;;;5.82;;
64641;SDS011;59936;51.490;5.436;2022-12-07T02:50:26;10.05;;;6.68;;
64641;SDS011;59936;51.490;5.436;2022-12-07T02:55:30;13.80;;;5.85;;
64641;SDS011;59936;51.490;5.436;2022-12-07T03:00:44;10.10;;;6.68;;
64641;SDS011;59936;51.490;5.436;2022-12-07T03:05:59;12.85;;;5.93;;
64641;SDS011;59936;51.490;5.436;2022-12-07T03:11:14;10.20;;;6.97;;
64641;SDS011;59936;51.490;5.436;2022-12-07T03:16:28;10.75;;;6.32;;
64641;SDS011;59936;51.490;5.436;2022-12-07T03:21:37;8.07;;;5.75;;
64641;SDS011;59936;51.490;5.436;2022-12-07T03:26:44;14.68;;;6.85;;
64641;SDS011;59936;51.490;5.436;2022-12-07T03:31:55;9.95;;;5.72;;
64641;SDS011;59936;51.490;5.436;2022-12-07T03:37:06;10.85;;;5.80;;
64641;SDS011;59936;51.490;5.436;2022-12-07T03:42:16;17.33;;;7.25;;
64641;SDS011;59936;51.490;5.436;2022-12-07T03:47:20;7.78;;;6.53;;
64641;SDS011;59936;51.490;5.436;2022-12-07T03:52:32;18.63;;;6.75;;
64641;SDS011;59936;51.490;5.436;2022-12-07T03:57:41;8.05;;;5.95;;
64641;SDS011;59936;51.490;5.436;2022-12-07T04:02:50;7.68;;;5.65;;
64641;SDS011;59936;51.490;5.436;2022-12-07T04:07:53;11.38;;;6.35;;
64641;SDS011;59936;51.490;5.436;2022-12-07T04:12:54;14.43;;;5.63;;
64641;SDS011;59936;51.490;5.436;2022-12-07T04:17:59;11.93;;;5.43;;
64641;SDS011;59936;51.490;5.436;2022-12-07T04:23:00;7.03;;;5.07;;
64641;SDS011;59936;51.490;5.436;2022-12-07T04:28:02;7.95;;;6.53;;
64641;SDS011;59936;51.490;5.436;2022-12-07T04:33:05;11.50;;;5.60;;
64641;SDS011;59936;51.490;5.436;2022-12-07T04:38:08;7.38;;;6.00;;
64641;SDS011;59936;51.490;5.436;2022-12-07T04:43:10;13.05;;;6.45;;
64641;SDS011;59936;51.490;5.436;2022-12-07T04:48:13;9.50;;;5.80;;
64641;SDS011;59936;51.490;5.436;2022-12-07T04:53:15;18.13;;;6.68;;
64641;SDS011;59936;51.490;5.436;2022-12-07T04:58:17;9.38;;;6.80;;
64641;SDS011;59936;51.490;5.436;2022-12-07T05:03:20;17.07;;;7.33;;
64641;SDS011;59936;51.490;5.436;2022-12-07T05:08:22;16.83;;;7.70;;
64641;SDS011;59936;51.490;5.436;2022-12-07T05:13:24;12.25;;;6.03;;
64641;SDS011;59936;51.490;5.436;2022-12-07T05:18:27;16.67;;;6.63;;
64641;SDS011;59936;51.490;5.436;2022-12-07T05:23:29;9.32;;;5.95;;
64641;SDS011;59936;51.490;5.436;2022-12-07T05:28:30;13.37;;;6.00;;
64641;SDS011;59936;51.490;5.436;2022-12-07T05:33:33;15.90;;;5.45;;
64641;SDS011;59936;51.490;5.436;2022-12-07T05:38:35;9.30;;;4.97;;
64641;SDS011;59936;51.490;5.436;2022-12-07T05:43:37;8.68;;;5.25;;
64641;SDS011;59936;51.490;5.436;2022-12-07T05:48:40;7.18;;;4.38;;
64641;SDS011;59936;51.490;5.436;2022-12-07T05:53:41;10.60;;;4.97;;
64641;SDS011;59936;51.490;5.436;2022-12-07T05:58:43;8.95;;;4.32;;
64641;SDS011;59936;51.490;5.436;2022-12-07T06:04:05;4.40;;;4.07;;
64641;SDS011;59936;51.490;5.436;2022-12-07T06:09:07;6.38;;;3.33;;
64641;SDS011;59936;51.490;5.436;2022-12-07T06:14:10;11.90;;;3.70;;
64641;SDS011;59936;51.490;5.436;2022-12-07T06:19:13;15.00;;;5.18;;
64641;SDS011;59936;51.490;5.436;2022-12-07T06:24:15;16.17;;;4.65;;
64641;SDS011;59936;51.490;5.436;2022-12-07T06:29:18;6.55;;;3.45;;
64641;SDS011;59936;51.490;5.436;2022-12-07T06:34:24;13.05;;;5.57;;
64641;SDS011;59936;51.490;5.436;2022-12-07T06:39:27;6.82;;;4.10;;
64641;SDS011;59936;51.490;5.436;2022-12-07T06:44:30;9.40;;;3.58;;
64641;SDS011;59936;51.490;5.436;2022-12-07T06:49:34;10.32;;;6.07;;
64641;SDS011;59936;51.490;5.436;2022-12-07T06:54:36;10.20;;;5.20;;
64641;SDS011;59936;51.490;5.436;2022-12-07T06:59:37;7.10;;;4.20;;
64641;SDS011;59936;51.490;5.436;2022-12-07T07:04:40;9.83;;;5.27;;
64641;SDS011;59936;51.490;5.436;2022-12-07T07:09:42;12.75;;;4.72;;
64641;SDS011;59936;51.490;5.436;2022-12-07T07:14:44;8.63;;;4.28;;
64641;SDS011;59936;51.490;5.436;2022-12-07T07:19:47;15.40;;;5.32;;
64641;SDS011;59936;51.490;5.436;2022-12-07T07:24:48;9.13;;;5.65;;
64641;SDS011;59936;51.490;5.436;2022-12-07T07:29:50;13.90;;;5.15;;
64641;SDS011;59936;51.490;5.436;2022-12-07T07:34:55;10.20;;;5.57;;
64641;SDS011;59936;51.490;5.436;2022-12-07T07:39:56;12.93;;;5.45;;
64641;SDS011;59936;51.490;5.436;2022-12-07T07:44:59;16.53;;;5.33;;
64641;SDS011;59936;51.490;5.436;2022-12-07T07:50:03;7.10;;;4.82;;
64641;SDS011;59936;51.490;5.436;2022-12-07T07:55:06;12.75;;;4.75;;
64641;SDS011;59936;51.490;5.436;2022-12-07T08:00:10;16.98;;;5.18;;
64641;SDS011;59936;51.490;5.436;2022-12-07T08:05:16;5.03;;;4.25;;
64641;SDS011;59936;51.490;5.436;2022-12-07T08:10:18;13.20;;;4.75;;
64641;SDS011;59936;51.490;5.436;2022-12-07T08:15:20;10.60;;;5.80;;
64641;SDS011;59936;51.490;5.436;2022-12-07T08:20:23;6.63;;;5.32;;
64641;SDS011;59936;51.490;5.436;2022-12-07T08:25:26;8.82;;;5.20;;
64641;SDS011;59936;51.490;5.436;2022-12-07T08:30:29;16.60;;;7.35;;
64641;SDS011;59936;51.490;5.436;2022-12-07T08:35:33;18.38;;;5.35;;
64641;SDS011;59936;51.490;5.436;2022-12-07T08:40:37;11.95;;;6.85;;
64641;SDS011;59936;51.490;5.436;2022-12-07T08:45:39;15.45;;;6.05;;
64641;SDS011;59936;51.490;5.436;2022-12-07T08:50:44;10.65;;;5.95;;
64641;SDS011;59936;51.490;5.436;2022-12-07T08:55:46;14.63;;;6.70;;
64641;SDS011;59936;51.490;5.436;2022-12-07T09:00:49;13.70;;;6.03;;
64641;SDS011;59936;51.490;5.436;2022-12-07T09:05:53;10.95;;;5.05;;
64641;SDS011;59936;51.490;5.436;2022-12-07T09:10:56;12.93;;;5.93;;
64641;SDS011;59936;51.490;5.436;2022-12-07T09:15:59;17.60;;;5.95;;
64641;SDS011;59936;51.490;5.436;2022-12-07T09:21:03;10.27;;;5.85;;
64641;SDS011;59936;51.490;5.436;2022-12-07T09:26:05;6.85;;;4.93;;
64641;SDS011;59936;51.490;5.436;2022-12-07T09:31:07;5.00;;;4.47;;
64641;SDS011;59936;51.490;5.436;2022-12-07T09:36:10;5.97;;;4.65;;
64641;SDS011;59936;51.490;5.436;2022-12-07T09:41:12;13.27;;;4.68;;
64641;SDS011;59936;51.490;5.436;2022-12-07T09:46:15;11.48;;;5.05;;
64641;SDS011;59936;51.490;5.436;2022-12-07T09:51:23;10.30;;;5.22;;
64641;SDS011;59936;51.490;5.436;2022-12-07T09:56:25;9.25;;;6.72;;
64641;SDS011;59936;51.490;5.436;2022-12-07T10:01:30;9.60;;;7.40;;
64641;SDS011;59936;51.490;5.436;2022-12-07T10:06:36;8.57;;;5.75;;
64641;SDS011;59936;51.490;5.436;2022-12-07T10:17:25;5.03;;;3.78;;
64641;SDS011;59936;51.490;5.436;2022-12-07T10:22:34;5.70;;;3.92;;
64641;SDS011;59936;51.490;5.436;2022-12-07T10:27:36;5.53;;;3.17;;
64641;SDS011;59936;51.490;5.436;2022-12-07T10:32:37;5.38;;;3.67;;
64641;SDS011;59936;51.490;5.436;2022-12-07T10:37:41;6.15;;;3.95;;
64641;SDS011;59936;51.490;5.436;2022-12-07T10:42:43;9.63;;;3.53;;
64641;SDS011;59936;51.490;5.436;2022-12-07T10:48:04;8.30;;;3.42;;
64641;SDS011;59936;51.490;5.436;2022-12-07T10:59:10;12.82;;;4.68;;
64641;SDS011;59936;51.490;5.436;2022-12-07T11:04:39;7.15;;;3.45;;
64641;SDS011;59936;51.490;5.436;2022-12-07T11:10:02;5.88;;;2.80;;
64641;SDS011;59936;51.490;5.436;2022-12-07T11:15:15;5.63;;;2.40;;
64641;SDS011;59936;51.490;5.436;2022-12-07T11:20:30;9.52;;;3.45;;
64641;SDS011;59936;51.490;5.436;2022-12-07T11:25:47;4.00;;;2.95;;
64641;SDS011;59936;51.490;5.436;2022-12-07T11:31:01;9.13;;;3.00;;
64641;SDS011;59936;51.490;5.436;2022-12-07T11:36:17;6.72;;;2.90;;
64641;SDS011;59936;51.490;5.436;2022-12-07T11:41:38;4.05;;;2.80;;
64641;SDS011;59936;51.490;5.436;2022-12-07T11:46:45;5.70;;;3.10;;
64641;SDS011;59936;51.490;5.436;2022-12-07T11:51:53;8.10;;;3.13;;
64641;SDS011;59936;51.490;5.436;2022-12-07T11:57:02;5.45;;;2.63;;
64641;SDS011;59936;51.490;5.436;2022-12-07T12:02:14;7.38;;;2.53;;
64641;SDS011;59936;51.490;5.436;2022-12-07T12:07:24;7.40;;;2.75;;
64641;SDS011;59936;51.490;5.436;2022-12-07T12:12:34;5.82;;;2.50;;
64641;SDS011;59936;51.490;5.436;2022-12-07T12:18:27;4.05;;;2.05;;
64641;SDS011;59936;51.490;5.436;2022-12-07T12:23:50;4.65;;;1.80;;
64641;SDS011;59936;51.490;5.436;2022-12-07T12:29:03;3.55;;;1.73;;
64641;SDS011;59936;51.490;5.436;2022-12-07T12:45:34;2.38;;;1.52;;
64641;SDS011;59936;51.490;5.436;2022-12-07T12:50:36;5.93;;;1.70;;
64641;SDS011;59936;51.490;5.436;2022-12-07T13:01:38;4.45;;;1.70;;
64641;SDS011;59936;51.490;5.436;2022-12-07T13:06:44;5.93;;;1.60;;
64641;SDS011;59936;51.490;5.436;2022-12-07T13:11:48;4.35;;;1.60;;
64641;SDS011;59936;51.490;5.436;2022-12-07T13:16:58;7.43;;;1.80;;
64641;SDS011;59936;51.490;5.436;2022-12-07T13:21:59;5.90;;;1.63;;
64641;SDS011;59936;51.490;5.436;2022-12-07T13:27:02;2.08;;;1.90;;
64641;SDS011;59936;51.490;5.436;2022-12-07T13:32:17;5.05;;;1.67;;
64641;SDS011;59936;51.490;5.436;2022-12-07T13:37:26;3.45;;;2.00;;
64641;SDS011;59936;51.490;5.436;2022-12-07T13:42:31;2.08;;;1.83;;
64641;SDS011;59936;51.490;5.436;2022-12-07T13:47:39;3.95;;;2.33;;
64641;SDS011;59936;51.490;5.436;2022-12-07T13:52:49;4.85;;;1.83;;
64641;SDS011;59936;51.490;5.436;2022-12-07T13:57:53;2.55;;;1.77;;
64641;SDS011;59936;51.490;5.436;2022-12-07T14:03:00;2.90;;;1.92;;
64641;SDS011;59936;51.490;5.436;2022-12-07T14:08:21;2.13;;;1.80;;
64641;SDS011;59936;51.490;5.436;2022-12-07T14:13:26;8.07;;;2.13;;
64641;SDS011;59936;51.490;5.436;2022-12-07T14:18:38;7.82;;;4.47;;
64641;SDS011;59936;51.490;5.436;2022-12-07T14:23:41;4.95;;;2.40;;
64641;SDS011;59936;51.490;5.436;2022-12-07T14:28:44;4.32;;;2.83;;
64641;SDS011;59936;51.490;5.436;2022-12-07T14:38:48;2.75;;;2.40;;
64641;SDS011;59936;51.490;5.436;2022-12-07T14:43:53;8.68;;;4.03;;
64641;SDS011;59936;51.490;5.436;2022-12-07T14:48:56;9.77;;;5.07;;
64641;SDS011;59936;51.490;5.436;2022-12-07T14:53:58;5.05;;;2.78;;
64641;SDS011;59936;51.490;5.436;2022-12-07T14:59:01;3.85;;;2.25;;
64641;SDS011;59936;51.490;5.436;2022-12-07T15:04:04;2.97;;;2.35;;
64641;SDS011;59936;51.490;5.436;2022-12-07T15:09:06;4.55;;;3.58;;
64641;SDS011;59936;51.490;5.436;2022-12-07T15:14:08;4.55;;;2.63;;
64641;SDS011;59936;51.490;5.436;2022-12-07T15:19:14;2.22;;;2.05;;
64641;SDS011;59936;51.490;5.436;2022-12-07T15:24:18;2.90;;;2.13;;
64641;SDS011;59936;51.490;5.436;2022-12-07T15:29:21;2.00;;;1.90;;
64641;SDS011;59936;51.490;5.436;2022-12-07T15:34:25;2.47;;;2.05;;
64641;SDS011;59936;51.490;5.436;2022-12-07T15:39:28;2.17;;;2.00;;
64641;SDS011;59936;51.490;5.436;2022-12-07T15:44:30;2.83;;;2.15;;
64641;SDS011;59936;51.490;5.436;2022-12-07T15:49:51;6.18;;;2.67;;
64641;SDS011;59936;51.490;5.436;2022-12-07T15:54:52;6.00;;;2.97;;
64641;SDS011;59936;51.490;5.436;2022-12-07T15:59:54;2.17;;;2.08;;
64641;SDS011;59936;51.490;5.436;2022-12-07T16:04:57;2.65;;;2.45;;
64641;SDS011;59936;51.490;5.436;2022-12-07T16:09:59;3.97;;;2.70;;
64641;SDS011;59936;51.490;5.436;2022-12-07T16:15:01;2.88;;;2.28;;
64641;SDS011;59936;51.490;5.436;2022-12-07T16:20:04;5.70;;;2.78;;
64641;SDS011;59936;51.490;5.436;2022-12-07T16:25:10;2.92;;;2.40;;
64641;SDS011;59936;51.490;5.436;2022-12-07T16:30:13;8.18;;;5.22;;
64641;SDS011;59936;51.490;5.436;2022-12-07T16:35:17;7.32;;;4.70;;
64641;SDS011;59936;51.490;5.436;2022-12-07T16:40:19;4.40;;;3.08;;
64641;SDS011;59936;51.490;5.436;2022-12-07T16:45:20;5.47;;;2.83;;
64641;SDS011;59936;51.490;5.436;2022-12-07T16:50:24;4.75;;;2.42;;
64641;SDS011;59936;51.490;5.436;2022-12-07T16:55:25;13.60;;;3.22;;
64641;SDS011;59936;51.490;5.436;2022-12-07T17:00:27;5.15;;;2.60;;
64641;SDS011;59936;51.490;5.436;2022-12-07T17:05:30;4.00;;;2.75;;
64641;SDS011;59936;51.490;5.436;2022-12-07T17:10:32;7.82;;;3.30;;
64641;SDS011;59936;51.490;5.436;2022-12-07T17:15:36;6.70;;;2.45;;
64641;SDS011;59936;51.490;5.436;2022-12-07T17:20:39;4.37;;;2.97;;
64641;SDS011;59936;51.490;5.436;2022-12-07T17:25:41;4.78;;;3.00;;
64641;SDS011;59936;51.490;5.436;2022-12-07T17:30:42;3.90;;;2.80;;
64641;SDS011;59936;51.490;5.436;2022-12-07T17:35:45;5.55;;;2.42;;
64641;SDS011;59936;51.490;5.436;2022-12-07T17:40:47;5.35;;;3.22;;
64641;SDS011;59936;51.490;5.436;2022-12-07T17:45:51;4.85;;;2.90;;
64641;SDS011;59936;51.490;5.436;2022-12-07T17:50:54;5.45;;;2.75;;
64641;SDS011;59936;51.490;5.436;2022-12-07T17:56:18;3.15;;;2.42;;
64641;SDS011;59936;51.490;5.436;2022-12-07T18:01:19;2.80;;;2.50;;
64641;SDS011;59936;51.490;5.436;2022-12-07T18:06:24;7.45;;;4.38;;
64641;SDS011;59936;51.490;5.436;2022-12-07T18:11:25;11.55;;;6.65;;
64641;SDS011;59936;51.490;5.436;2022-12-07T18:16:28;9.45;;;3.95;;
64641;SDS011;59936;51.490;5.436;2022-12-07T18:21:34;4.95;;;2.97;;
64641;SDS011;59936;51.490;5.436;2022-12-07T18:26:36;3.47;;;2.55;;
64641;SDS011;59936;51.490;5.436;2022-12-07T18:31:39;4.63;;;2.33;;
64641;SDS011;59936;51.490;5.436;2022-12-07T18:36:43;3.03;;;2.08;;
64641;SDS011;59936;51.490;5.436;2022-12-07T18:41:49;2.78;;;1.75;;
64641;SDS011;59936;51.490;5.436;2022-12-07T18:46:51;4.65;;;2.00;;
64641;SDS011;59936;51.490;5.436;2022-12-07T18:51:54;3.13;;;2.42;;
64641;SDS011;59936;51.490;5.436;2022-12-07T18:56:56;5.07;;;3.35;;
64641;SDS011;59936;51.490;5.436;2022-12-07T19:01:59;2.90;;;2.43;;
64641;SDS011;59936;51.490;5.436;2022-12-07T19:07:02;4.82;;;2.80;;
64641;SDS011;59936;51.490;5.436;2022-12-07T19:12:04;9.35;;;2.53;;
64641;SDS011;59936;51.490;5.436;2022-12-07T19:17:07;4.38;;;2.45;;
64641;SDS011;59936;51.490;5.436;2022-12-07T19:22:13;6.13;;;3.00;;
64641;SDS011;59936;51.490;5.436;2022-12-07T19:27:18;3.60;;;3.00;;
64641;SDS011;59936;51.490;5.436;2022-12-07T19:32:20;3.42;;;3.05;;
64641;SDS011;59936;51.490;5.436;2022-12-07T19:37:23;6.30;;;3.65;;
64641;SDS011;59936;51.490;5.436;2022-12-07T19:42:25;10.45;;;4.18;;
64641;SDS011;59936;51.490;5.436;2022-12-07T19:47:27;3.88;;;3.50;;
64641;SDS011;59936;51.490;5.436;2022-12-07T19:52:31;4.10;;;3.55;;
64641;SDS011;59936;51.490;5.436;2022-12-07T19:57:32;6.10;;;4.18;;
64641;SDS011;59936;51.490;5.436;2022-12-07T20:02:34;4.50;;;4.10;;
64641;SDS011;59936;51.490;5.436;2022-12-07T20:07:37;4.07;;;3.40;;
64641;SDS011;59936;51.490;5.436;2022-12-07T20:12:40;7.00;;;3.90;;
64641;SDS011;59936;51.490;5.436;2022-12-07T20:17:59;5.82;;;3.53;;
64641;SDS011;59936;51.490;5.436;2022-12-07T20:23:03;3.63;;;3.43;;
64641;SDS011;59936;51.490;5.436;2022-12-07T20:28:05;4.93;;;4.28;;
64641;SDS011;59936;51.490;5.436;2022-12-07T20:33:07;6.00;;;3.55;;
64641;SDS011;59936;51.490;5.436;2022-12-07T20:38:10;4.75;;;3.47;;
64641;SDS011;59936;51.490;5.436;2022-12-07T20:43:14;7.40;;;3.88;;
64641;SDS011;59936;51.490;5.436;2022-12-07T20:48:16;4.20;;;3.80;;
64641;SDS011;59936;51.490;5.436;2022-12-07T20:53:20;3.37;;;3.00;;
64641;SDS011;59936;51.490;5.436;2022-12-07T20:58:22;5.45;;;4.57;;
64641;SDS011;59936;51.490;5.436;2022-12-07T21:03:25;3.50;;;3.05;;
64641;SDS011;59936;51.490;5.436;2022-12-07T21:08:28;4.35;;;3.40;;
64641;SDS011;59936;51.490;5.436;2022-12-07T21:13:30;3.55;;;3.10;;
64641;SDS011;59936;51.490;5.436;2022-12-07T21:18:32;3.70;;;3.50;;
64641;SDS011;59936;51.490;5.436;2022-12-07T21:23:36;3.00;;;2.80;;
64641;SDS011;59936;51.490;5.436;2022-12-07T21:28:38;6.43;;;3.58;;
64641;SDS011;59936;51.490;5.436;2022-12-07T21:33:41;3.75;;;3.55;;
64641;SDS011;59936;51.490;5.436;2022-12-07T21:38:46;8.35;;;4.68;;
64641;SDS011;59936;51.490;5.436;2022-12-07T21:43:48;4.70;;;4.38;;
64641;SDS011;59936;51.490;5.436;2022-12-07T21:48:50;5.43;;;4.97;;
64641;SDS011;59936;51.490;5.436;2022-12-07T21:53:57;8.93;;;5.68;;
64641;SDS011;59936;51.490;5.436;2022-12-07T21:59:01;7.05;;;6.55;;
64641;SDS011;59936;51.490;5.436;2022-12-07T22:04:06;8.95;;;8.15;;
64641;SDS011;59936;51.490;5.436;2022-12-07T22:09:12;9.23;;;8.25;;
64641;SDS011;59936;51.490;5.436;2022-12-07T22:14:17;8.85;;;8.23;;
64641;SDS011;59936;51.490;5.436;2022-12-07T22:19:38;11.75;;;11.00;;
64641;SDS011;59936;51.490;5.436;2022-12-07T22:24:41;10.68;;;9.82;;
64641;SDS011;59936;51.490;5.436;2022-12-07T22:29:47;13.82;;;12.88;;
64641;SDS011;59936;51.490;5.436;2022-12-07T22:34:48;13.82;;;12.43;;
64641;SDS011;59936;51.490;5.436;2022-12-07T22:39:53;15.47;;;13.87;;
64641;SDS011;59936;51.490;5.436;2022-12-07T22:44:55;15.68;;;14.20;;
64641;SDS011;59936;51.490;5.436;2022-12-07T22:49:56;17.03;;;15.43;;
64641;SDS011;59936;51.490;5.436;2022-12-07T22:55:00;21.38;;;19.73;;
64641;SDS011;59936;51.490;5.436;2022-12-07T23:00:02;16.13;;;14.80;;
64641;SDS011;59936;51.490;5.436;2022-12-07T23:05:08;20.70;;;18.48;;
64641;SDS011;59936;51.490;5.436;2022-12-07T23:10:11;19.73;;;17.75;;
64641;SDS011;59936;51.490;5.436;2022-12-07T23:15:13;18.55;;;16.55;;
64641;SDS011;59936;51.490;5.436;2022-12-07T23:20:15;22.42;;;17.70;;
64641;SDS011;59936;51.490;5.436;2022-12-07T23:25:19;20.23;;;18.00;;
64641;SDS011;59936;51.490;5.436;2022-12-07T23:30:20;21.58;;;19.40;;
64641;SDS011;59936;51.490;5.436;2022-12-07T23:35:22;26.65;;;23.15;;
64641;SDS011;59936;51.490;5.436;2022-12-07T23:40:25;18.73;;;16.88;;
64641;SDS011;59936;51.490;5.436;2022-12-07T23:45:27;19.17;;;17.33;;
64641;SDS011;59936;51.490;5.436;2022-12-07T23:50:29;21.43;;;19.10;;
64641;SDS011;59936;51.490;5.436;2022-12-07T23:55:32;19.60;;;17.90;;
